VOBZVOBG

Guest
Details From VOBZ - VIJAYAWADA
To VOBG - Bangalore
Flight Number -
Tags decoded
Created
Modified
Stats Distance 305 nm / 565 km
Max Altitude 0 ft / 0 m
Waypoints 3
Social Downloads 0
Likes 0
Share VATSIM

Download

Looking for another format? Having issues loading an existing format? Contact us
Advertisement - Login to hide

Notes

Requested: VOBZ TTP BIA VOBG

Route

VOBZ TTP VOBG

ID Type Via Altitude Latitude Longitude Leg Dist Tot Dist Heading (true) Name
O VOBZ APT - 0 ft / 0 m 16.53043˚ 80.79685˚ - 0 nm - VIJAYAWADA
TTP VOR - 0 ft / 0 m 13.63441˚ 79.53911˚ 188 nm 188 nm 203° / 203° TIRUPATI VOR-DME
O VOBG APT - 0 ft / 0 m 12.95016˚ 77.67065˚ 116 nm 305 nm 250° / 249° Bangalore

Altitude Profile

Advertisement - Login to hide

Weather


0- 5 10 15 20 25 30 35+ Temperature / ° C

Clouds and Precipitation
Forecast for 2017-12-13 12:00 UTC. Updated 2 hours ago

Ground ~20,000 ft ~40,000 ft Winds

VOBZ

Details ICAO VOBZ (VGA)
Name VIJAYAWADA
Region India
Timezone Asia/Kolkata (UTC+5.5)
Stats Elevation 82 ft / 25 m (AMSL)
Location 16.530433° 80.796847°
Runways 1
Magnetic Variation 0.738° W

METAR

VOBZ 131230Z 00000KT 3000 HZ NSC 28/20 Q1012 NOSIG

Decode

TAF

Not found

Departure Runways

ID Width Length Bearing (true) Bearing (mag) Surface Threshold Offset Overrun Length
08 150 ft / 46 m 5,720 ft / 1,744 m 78.67° 79.41° Asphalt 984 ft / 300 m 200 ft / 61 m
26 150 ft / 46 m 5,720 ft / 1,744 m 258.68° 259.42° Asphalt 0 ft / 0 m 0 ft / 0 m

VOBG

Details ICAO VOBG
Name Bangalore
Region India
Timezone Asia/Kolkata (UTC+5.5)
Stats Elevation 2,912 ft / 888 m (AMSL)
Location 12.950157° 77.670647°
Runways 1
Magnetic Variation 1.217° W

METAR

VOBG 131300Z 09005KT 6000 SCT012 24/18 Q1016

Decode

TAF

Not found

Destination Runways

ID Width Length Bearing (true) Bearing (mag) Surface Threshold Offset Overrun Length
09 200 ft / 61 m 10,786 ft / 3,288 m 84.80° 86.02° Asphalt 0 ft / 0 m 950 ft / 290 m
27 200 ft / 61 m 10,786 ft / 3,288 m 264.81° 266.03° Asphalt 0 ft / 0 m 980 ft / 299 m

Approach Navaids

Runway Type Ident Frequency Range Bearing (true) Bearing (mag) Slope Elevation
27 Localiser IBLR 110.50 MHz 18 nm / 33 km 262.49° 263.70° - 2,912 ft / 888 m (AMSL)
27 Glidescope IBLR 110.50 MHz 10 nm / 19 km 264.81° 266.02° 3.00° 2,943 ft / 897 m (AMSL)
27 DME IBLR 110.50 MHz 18 nm / 33 km - - - 2,912 ft / 888 m (AMSL)

Popular Alternatives